sensor_id;sensor_type;location;lat;lon;timestamp;pressure;altitude;pressure_sealevel;temperature
64394;BMP280;50712;49.506;10.400;2023-08-01T00:00:14;97036.50;;;21.88
64394;BMP280;50712;49.506;10.400;2023-08-01T00:00:47;97044.06;;;21.87
64394;BMP280;50712;49.506;10.400;2023-08-01T00:01:18;97035.00;;;21.86
64394;BMP280;50712;49.506;10.400;2023-08-01T00:01:48;97039.84;;;21.86
64394;BMP280;50712;49.506;10.400;2023-08-01T00:02:18;97036.31;;;21.86
64394;BMP280;50712;49.506;10.400;2023-08-01T00:02:49;97034.06;;;21.84
64394;BMP280;50712;49.506;10.400;2023-08-01T00:03:19;97034.06;;;21.84
64394;BMP280;50712;49.506;10.400;2023-08-01T00:03:49;97027.06;;;21.83
64394;BMP280;50712;49.506;10.400;2023-08-01T00:04:20;97033.31;;;21.83
64394;BMP280;50712;49.506;10.400;2023-08-01T00:04:50;97037.44;;;21.83
64394;BMP280;50712;49.506;10.400;2023-08-01T00:05:20;97033.91;;;21.82
64394;BMP280;50712;49.506;10.400;2023-08-01T00:05:51;97034.44;;;21.80
64394;BMP280;50712;49.506;10.400;2023-08-01T00:06:21;97029.44;;;21.79
64394;BMP280;50712;49.506;10.400;2023-08-01T00:06:52;97030.19;;;21.79
64394;BMP280;50712;49.506;10.400;2023-08-01T00:07:22;97030.75;;;21.78
64394;BMP280;50712;49.506;10.400;2023-08-01T00:07:53;97034.25;;;21.78
64394;BMP280;50712;49.506;10.400;2023-08-01T00:08:23;97031.28;;;21.76
64394;BMP280;50712;49.506;10.400;2023-08-01T00:08:53;97031.28;;;21.76
64394;BMP280;50712;49.506;10.400;2023-08-01T00:09:23;97030.53;;;21.76
64394;BMP280;50712;49.506;10.400;2023-08-01T00:09:54;97019.25;;;21.74
64394;BMP280;50712;49.506;10.400;2023-08-01T00:10:24;97024.81;;;21.74
64394;BMP280;50712;49.506;10.400;2023-08-01T00:10:54;97024.06;;;21.73
64394;BMP280;50712;49.506;10.400;2023-08-01T00:11:25;97031.66;;;21.73
64394;BMP280;50712;49.506;10.400;2023-08-01T00:11:55;97025.34;;;21.72
64394;BMP280;50712;49.506;10.400;2023-08-01T00:12:26;97026.09;;;21.73
64394;BMP280;50712;49.506;10.400;2023-08-01T00:12:57;97024.59;;;21.72
64394;BMP280;50712;49.506;10.400;2023-08-01T00:13:27;97030.69;;;21.70
64394;BMP280;50712;49.506;10.400;2023-08-01T00:13:58;97029.97;;;21.70
64394;BMP280;50712;49.506;10.400;2023-08-01T00:14:28;97023.69;;;21.69
64394;BMP280;50712;49.506;10.400;2023-08-01T00:14:59;97023.69;;;21.69
64394;BMP280;50712;49.506;10.400;2023-08-01T00:15:29;97024.97;;;21.68
64394;BMP280;50712;49.506;10.400;2023-08-01T00:15:59;97032.53;;;21.68
64394;BMP280;50712;49.506;10.400;2023-08-01T00:16:30;97028.28;;;21.67
64394;BMP280;50712;49.506;10.400;2023-08-01T00:17:01;97026.81;;;21.66
64394;BMP280;50712;49.506;10.400;2023-08-01T00:17:31;97029.59;;;21.66
64394;BMP280;50712;49.506;10.400;2023-08-01T00:18:01;97021.25;;;21.66
64394;BMP280;50712;49.506;10.400;2023-08-01T00:18:32;97028.28;;;21.67
64394;BMP280;50712;49.506;10.400;2023-08-01T00:19:02;97026.06;;;21.65
64394;BMP280;50712;49.506;10.400;2023-08-01T00:19:32;97020.50;;;21.65
64394;BMP280;50712;49.506;10.400;2023-08-01T00:20:03;97020.50;;;21.65
64394;BMP280;50712;49.506;10.400;2023-08-01T00:20:34;97017.00;;;21.65
64394;BMP280;50712;49.506;10.400;2023-08-01T00:21:04;97021.25;;;21.66
64394;BMP280;50712;49.506;10.400;2023-08-01T00:21:35;97014.97;;;21.65
64394;BMP280;50712;49.506;10.400;2023-08-01T00:22:05;97014.22;;;21.65
64394;BMP280;50712;49.506;10.400;2023-08-01T00:22:36;97019.75;;;21.65
64394;BMP280;50712;49.506;10.400;2023-08-01T00:23:06;97003.13;;;21.65
64394;BMP280;50712;49.506;10.400;2023-08-01T00:23:37;97013.47;;;21.64
64394;BMP280;50712;49.506;10.400;2023-08-01T00:24:07;97015.53;;;21.64
64394;BMP280;50712;49.506;10.400;2023-08-01T00:24:38;97014.78;;;21.63
64394;BMP280;50712;49.506;10.400;2023-08-01T00:25:08;97004.22;;;21.62
64394;BMP280;50712;49.506;10.400;2023-08-01T00:25:39;97013.31;;;21.62
64394;BMP280;50712;49.506;10.400;2023-08-01T00:26:09;97000.72;;;21.61
64394;BMP280;50712;49.506;10.400;2023-08-01T00:26:39;97004.22;;;21.62
64394;BMP280;50712;49.506;10.400;2023-08-01T00:27:10;97003.47;;;21.61
64394;BMP280;50712;49.506;10.400;2023-08-01T00:27:40;97002.00;;;21.60
64394;BMP280;50712;49.506;10.400;2023-08-01T00:28:11;97004.03;;;21.60
64394;BMP280;50712;49.506;10.400;2023-08-01T00:28:43;97001.25;;;21.60
64394;BMP280;50712;49.506;10.400;2023-08-01T00:29:13;97003.28;;;21.59
64394;BMP280;50712;49.506;10.400;2023-08-01T00:29:44;96998.28;;;21.58
64394;BMP280;50712;49.506;10.400;2023-08-01T00:30:17;96998.28;;;21.58
64394;BMP280;50712;49.506;10.400;2023-08-01T00:30:47;96998.84;;;21.56
64394;BMP280;50712;49.506;10.400;2023-08-01T00:31:18;96994.56;;;21.55
64394;BMP280;50712;49.506;10.400;2023-08-01T00:31:48;96998.69;;;21.54
64394;BMP280;50712;49.506;10.400;2023-08-01T00:32:19;96993.13;;;21.54
64394;BMP280;50712;49.506;10.400;2023-08-01T00:32:49;97001.44;;;21.54
64394;BMP280;50712;49.506;10.400;2023-08-01T00:33:19;96997.19;;;21.53
64394;BMP280;50712;49.506;10.400;2023-08-01T00:33:50;96999.94;;;21.53
64394;BMP280;50712;49.506;10.400;2023-08-01T00:34:20;96992.91;;;21.52
64394;BMP280;50712;49.506;10.400;2023-08-01T00:34:50;96999.19;;;21.53
64394;BMP280;50712;49.506;10.400;2023-08-01T00:35:22;96990.88;;;21.53
64394;BMP280;50712;49.506;10.400;2023-08-01T00:35:55;96998.44;;;21.52
64394;BMP280;50712;49.506;10.400;2023-08-01T00:36:25;96999.19;;;21.53
64394;BMP280;50712;49.506;10.400;2023-08-01T00:36:58;96996.94;;;21.51
64394;BMP280;50712;49.506;10.400;2023-08-01T00:37:28;96993.66;;;21.53
64394;BMP280;50712;49.506;10.400;2023-08-01T00:37:59;96991.41;;;21.51
64394;BMP280;50712;49.506;10.400;2023-08-01T00:38:29;96992.16;;;21.52
64394;BMP280;50712;49.506;10.400;2023-08-01T00:39:00;96992.16;;;21.52
64394;BMP280;50712;49.506;10.400;2023-08-01T00:39:30;96987.94;;;21.51
64394;BMP280;50712;49.506;10.400;2023-08-01T00:40:00;96988.63;;;21.51
64394;BMP280;50712;49.506;10.400;2023-08-01T00:40:31;96990.72;;;21.51
64394;BMP280;50712;49.506;10.400;2023-08-01T00:41:02;96992.00;;;21.50
64394;BMP280;50712;49.506;10.400;2023-08-01T00:41:32;96989.22;;;21.50
64394;BMP280;50712;49.506;10.400;2023-08-01T00:42:03;96986.44;;;21.50
64394;BMP280;50712;49.506;10.400;2023-08-01T00:42:35;96984.41;;;21.50
64394;BMP280;50712;49.506;10.400;2023-08-01T00:43:08;96980.91;;;21.50
64394;BMP280;50712;49.506;10.400;2023-08-01T00:43:38;96982.91;;;21.49
64394;BMP280;50712;49.506;10.400;2023-08-01T00:44:09;96977.38;;;21.49
64394;BMP280;50712;49.506;10.400;2023-08-01T00:44:39;96977.94;;;21.48
64394;BMP280;50712;49.506;10.400;2023-08-01T00:45:09;96975.88;;;21.48
64394;BMP280;50712;49.506;10.400;2023-08-01T00:45:40;96978.66;;;21.48
64394;BMP280;50712;49.506;10.400;2023-08-01T00:46:11;96977.94;;;21.48
64394;BMP280;50712;49.506;10.400;2023-08-01T00:46:41;96977.22;;;21.47
64394;BMP280;50712;49.506;10.400;2023-08-01T00:47:12;96973.69;;;21.47
64394;BMP280;50712;49.506;10.400;2023-08-01T00:47:42;96977.94;;;21.48
64394;BMP280;50712;49.506;10.400;2023-08-01T00:48:13;96970.91;;;21.47
64394;BMP280;50712;49.506;10.400;2023-08-01T00:48:43;96971.66;;;21.47
64394;BMP280;50712;49.506;10.400;2023-08-01T00:49:14;96970.16;;;21.46
64394;BMP280;50712;49.506;10.400;2023-08-01T00:49:44;96974.97;;;21.46
64394;BMP280;50712;49.506;10.400;2023-08-01T00:50:15;96971.44;;;21.45
64394;BMP280;50712;49.506;10.400;2023-08-01T00:50:45;96971.44;;;21.45
64394;BMP280;50712;49.506;10.400;2023-08-01T00:51:16;96976.97;;;21.45
64394;BMP280;50712;49.506;10.400;2023-08-01T00:51:48;96964.44;;;21.44
64394;BMP280;50712;49.506;10.400;2023-08-01T00:52:18;96967.94;;;21.45
64394;BMP280;50712;49.506;10.400;2023-08-01T00:52:50;96960.16;;;21.43
64394;BMP280;50712;49.506;10.400;2023-08-01T00:53:21;96960.16;;;21.43
64394;BMP280;50712;49.506;10.400;2023-08-01T00:53:52;96967.75;;;21.43
64394;BMP280;50712;49.506;10.400;2023-08-01T00:54:23;96972.00;;;21.44
64394;BMP280;50712;49.506;10.400;2023-08-01T00:54:54;96965.69;;;21.43
64394;BMP280;50712;49.506;10.400;2023-08-01T00:55:25;96962.22;;;21.43
64394;BMP280;50712;49.506;10.400;2023-08-01T00:56:00;96960.72;;;21.42
64394;BMP280;50712;49.506;10.400;2023-08-01T00:56:31;96972.53;;;21.42
64394;BMP280;50712;49.506;10.400;2023-08-01T00:57:04;96965.53;;;21.41
64394;BMP280;50712;49.506;10.400;2023-08-01T00:57:36;96959.78;;;21.39
64394;BMP280;50712;49.506;10.400;2023-08-01T00:58:06;96971.59;;;21.40
64394;BMP280;50712;49.506;10.400;2023-08-01T00:58:37;96968.09;;;21.39
64394;BMP280;50712;49.506;10.400;2023-08-01T00:59:07;96962.34;;;21.37
64394;BMP280;50712;49.506;10.400;2023-08-01T00:59:37;96964.38;;;21.37
64394;BMP280;50712;49.506;10.400;2023-08-01T01:00:08;96958.84;;;21.37
64394;BMP280;50712;49.506;10.400;2023-08-01T01:00:39;96959.41;;;21.35
64394;BMP280;50712;49.506;10.400;2023-08-01T01:01:09;96960.69;;;21.34
64394;BMP280;50712;49.506;10.400;2023-08-01T01:01:40;96955.66;;;21.33
64394;BMP280;50712;49.506;10.400;2023-08-01T01:02:10;96952.19;;;21.32
64394;BMP280;50712;49.506;10.400;2023-08-01T01:02:41;96956.97;;;21.32
64394;BMP280;50712;49.506;10.400;2023-08-01T01:03:12;96957.53;;;21.30
64394;BMP280;50712;49.506;10.400;2023-08-01T01:03:44;96957.53;;;21.30
64394;BMP280;50712;49.506;10.400;2023-08-01T01:04:14;96956.03;;;21.29
64394;BMP280;50712;49.506;10.400;2023-08-01T01:04:45;96950.47;;;21.29
64394;BMP280;50712;49.506;10.400;2023-08-01T01:05:15;96956.56;;;21.28
64394;BMP280;50712;49.506;10.400;2023-08-01T01:05:57;96949.00;;;21.28
64394;BMP280;50712;49.506;10.400;2023-08-01T01:06:46;96953.09;;;21.27
64394;BMP280;50712;49.506;10.400;2023-08-01T01:07:36;96948.81;;;21.26
64394;BMP280;50712;49.506;10.400;2023-08-01T01:08:07;96950.88;;;21.26
64394;BMP280;50712;49.506;10.400;2023-08-01T01:08:37;96950.88;;;21.26
64394;BMP280;50712;49.506;10.400;2023-08-01T01:09:17;96937.00;;;21.26
64394;BMP280;50712;49.506;10.400;2023-08-01T01:09:48;96938.28;;;21.25
64394;BMP280;50712;49.506;10.400;2023-08-01T01:10:22;96934.25;;;21.26
64394;BMP280;50712;49.506;10.400;2023-08-01T01:10:53;96930.72;;;21.25
64394;BMP280;50712;49.506;10.400;2023-08-01T01:11:23;96932.75;;;21.25
64394;BMP280;50712;49.506;10.400;2023-08-01T01:11:53;96934.97;;;21.26
64394;BMP280;50712;49.506;10.400;2023-08-01T01:12:24;96919.63;;;21.25
64394;BMP280;50712;49.506;10.400;2023-08-01T01:12:54;96930.72;;;21.25
64394;BMP280;50712;49.506;10.400;2023-08-01T01:13:25;96929.97;;;21.25
64394;BMP280;50712;49.506;10.400;2023-08-01T01:13:55;96925.19;;;21.25
64394;BMP280;50712;49.506;10.400;2023-08-01T01:14:29;96923.16;;;21.26
64394;BMP280;50712;49.506;10.400;2023-08-01T01:14:59;96925.19;;;21.25
64394;BMP280;50712;49.506;10.400;2023-08-01T01:15:30;96923.69;;;21.24
64394;BMP280;50712;49.506;10.400;2023-08-01T01:16:00;96924.44;;;21.25
64394;BMP280;50712;49.506;10.400;2023-08-01T01:16:31;96926.44;;;21.24
64394;BMP280;50712;49.506;10.400;2023-08-01T01:17:01;96913.91;;;21.23
64394;BMP280;50712;49.506;10.400;2023-08-01T01:17:31;96922.22;;;21.23
64394;BMP280;50712;49.506;10.400;2023-08-01T01:18:02;96924.25;;;21.23
64394;BMP280;50712;49.506;10.400;2023-08-01T01:18:32;96915.94;;;21.23
64394;BMP280;50712;49.506;10.400;2023-08-01T01:19:07;96917.97;;;21.22
64394;BMP280;50712;49.506;10.400;2023-08-01T01:19:39;96911.69;;;21.22
64394;BMP280;50712;49.506;10.400;2023-08-01T01:20:09;96914.44;;;21.22
64394;BMP280;50712;49.506;10.400;2023-08-01T01:20:40;96913.69;;;21.21
64394;BMP280;50712;49.506;10.400;2023-08-01T01:21:10;96912.94;;;21.21
64394;BMP280;50712;49.506;10.400;2023-08-01T01:21:41;96914.22;;;21.20
64394;BMP280;50712;49.506;10.400;2023-08-01T01:22:12;96912.19;;;21.20
64394;BMP280;50712;49.506;10.400;2023-08-01T01:22:44;96916.31;;;21.19
64394;BMP280;50712;49.506;10.400;2023-08-01T01:23:16;96918.31;;;21.19
64394;BMP280;50712;49.506;10.400;2023-08-01T01:23:47;96917.56;;;21.18
64394;BMP280;50712;49.506;10.400;2023-08-01T01:24:20;96917.56;;;21.18
64394;BMP280;50712;49.506;10.400;2023-08-01T01:24:52;96916.81;;;21.18
64394;BMP280;50712;49.506;10.400;2023-08-01T01:25:25;96916.06;;;21.17
64394;BMP280;50712;49.506;10.400;2023-08-01T01:25:57;96912.56;;;21.17
64394;BMP280;50712;49.506;10.400;2023-08-01T01:26:28;96907.00;;;21.17
64394;BMP280;50712;49.506;10.400;2023-08-01T01:26:58;96912.56;;;21.17
64394;BMP280;50712;49.506;10.400;2023-08-01T01:27:30;96905.00;;;21.17
64394;BMP280;50712;49.506;10.400;2023-08-01T01:28:01;96906.28;;;21.16
64394;BMP280;50712;49.506;10.400;2023-08-01T01:28:35;96913.13;;;21.15
64394;BMP280;50712;49.506;10.400;2023-08-01T01:29:06;96906.84;;;21.15
64394;BMP280;50712;49.506;10.400;2023-08-01T01:29:38;96906.84;;;21.15
64394;BMP280;50712;49.506;10.400;2023-08-01T01:30:10;96909.63;;;21.15
64394;BMP280;50712;49.506;10.400;2023-08-01T01:30:42;96899.28;;;21.15
64394;BMP280;50712;49.506;10.400;2023-08-01T01:31:13;96904.06;;;21.15
64394;BMP280;50712;49.506;10.400;2023-08-01T01:31:45;96906.09;;;21.14
64394;BMP280;50712;49.506;10.400;2023-08-01T01:32:16;96912.94;;;21.13
64394;BMP280;50712;49.506;10.400;2023-08-01T01:32:48;96906.66;;;21.13
64394;BMP280;50712;49.506;10.400;2023-08-01T01:33:19;96899.59;;;21.12
64394;BMP280;50712;49.506;10.400;2023-08-01T01:33:49;96902.38;;;21.12
64394;BMP280;50712;49.506;10.400;2023-08-01T01:34:20;96898.88;;;21.11
64394;BMP280;50712;49.506;10.400;2023-08-01T01:34:51;96902.38;;;21.12
64394;BMP280;50712;49.506;10.400;2023-08-01T01:35:22;96900.16;;;21.10
64394;BMP280;50712;49.506;10.400;2023-08-01T01:35:53;96904.44;;;21.11
64394;BMP280;50712;49.506;10.400;2023-08-01T01:36:24;96893.34;;;21.11
64394;BMP280;50712;49.506;10.400;2023-08-01T01:36:54;96896.13;;;21.11
64394;BMP280;50712;49.506;10.400;2023-08-01T01:37:25;96898.13;;;21.11
64394;BMP280;50712;49.506;10.400;2023-08-01T01:37:56;96892.59;;;21.11
64394;BMP280;50712;49.506;10.400;2023-08-01T01:38:28;96889.84;;;21.11
64394;BMP280;50712;49.506;10.400;2023-08-01T01:38:59;96889.09;;;21.10
64394;BMP280;50712;49.506;10.400;2023-08-01T01:39:29;96889.09;;;21.10
64394;BMP280;50712;49.506;10.400;2023-08-01T01:39:59;96885.59;;;21.10
64394;BMP280;50712;49.506;10.400;2023-08-01T01:40:30;96889.84;;;21.11
64394;BMP280;50712;49.506;10.400;2023-08-01T01:41:00;96880.06;;;21.10
64394;BMP280;50712;49.506;10.400;2023-08-01T01:41:31;96880.78;;;21.10
64394;BMP280;50712;49.506;10.400;2023-08-01T01:42:01;96873.75;;;21.09
64394;BMP280;50712;49.506;10.400;2023-08-01T01:42:32;96878.56;;;21.09
64394;BMP280;50712;49.506;10.400;2023-08-01T01:43:02;96871.00;;;21.09
64394;BMP280;50712;49.506;10.400;2023-08-01T01:43:33;96872.25;;;21.08
64394;BMP280;50712;49.506;10.400;2023-08-01T01:44:03;96872.25;;;21.08
64394;BMP280;50712;49.506;10.400;2023-08-01T01:44:33;96870.25;;;21.09
64394;BMP280;50712;49.506;10.400;2023-08-01T01:45:04;96868.75;;;21.08
64394;BMP280;50712;49.506;10.400;2023-08-01T01:45:35;96862.47;;;21.07
64394;BMP280;50712;49.506;10.400;2023-08-01T01:46:05;96869.31;;;21.06
64394;BMP280;50712;49.506;10.400;2023-08-01T01:46:36;96860.25;;;21.06
64394;BMP280;50712;49.506;10.400;2023-08-01T01:47:06;96864.31;;;21.05
64394;BMP280;50712;49.506;10.400;2023-08-01T01:47:36;96863.56;;;21.04
64394;BMP280;50712;49.506;10.400;2023-08-01T01:48:07;96864.88;;;21.03
64394;BMP280;50712;49.506;10.400;2023-08-01T01:48:37;96867.66;;;21.03
64394;BMP280;50712;49.506;10.400;2023-08-01T01:49:07;96854.34;;;21.02
64394;BMP280;50712;49.506;10.400;2023-08-01T01:49:38;96859.88;;;21.02
64394;BMP280;50712;49.506;10.400;2023-08-01T01:50:08;96853.59;;;21.01
64394;BMP280;50712;49.506;10.400;2023-08-01T01:50:39;96856.34;;;21.01
64394;BMP280;50712;49.506;10.400;2023-08-01T01:51:09;96848.03;;;21.01
64394;BMP280;50712;49.506;10.400;2023-08-01T01:51:40;96848.03;;;21.01
64394;BMP280;50712;49.506;10.400;2023-08-01T01:52:10;96848.03;;;21.01
64394;BMP280;50712;49.506;10.400;2023-08-01T01:52:40;96852.31;;;21.02
64394;BMP280;50712;49.506;10.400;2023-08-01T01:53:11;96847.28;;;21.01
64394;BMP280;50712;49.506;10.400;2023-08-01T01:53:41;96846.56;;;21.00
64394;BMP280;50712;49.506;10.400;2023-08-01T01:54:12;96844.53;;;21.01
64394;BMP280;50712;49.506;10.400;2023-08-01T01:54:42;96836.97;;;21.01
64394;BMP280;50712;49.506;10.400;2023-08-01T01:55:13;96836.97;;;21.01
64394;BMP280;50712;49.506;10.400;2023-08-01T01:55:44;96831.44;;;21.01
64394;BMP280;50712;49.506;10.400;2023-08-01T01:56:15;96832.72;;;21.00
64394;BMP280;50712;49.506;10.400;2023-08-01T01:56:45;96828.66;;;21.01
64394;BMP280;50712;49.506;10.400;2023-08-01T01:57:16;96830.69;;;21.01
64394;BMP280;50712;49.506;10.400;2023-08-01T01:57:46;96834.19;;;21.01
64394;BMP280;50712;49.506;10.400;2023-08-01T01:58:16;96821.09;;;21.02
64394;BMP280;50712;49.506;10.400;2023-08-01T01:58:47;96824.41;;;21.00
64394;BMP280;50712;49.506;10.400;2023-08-01T01:59:17;96824.41;;;21.00
64394;BMP280;50712;49.506;10.400;2023-08-01T01:59:48;96815.38;;;21.00
64394;BMP280;50712;49.506;10.400;2023-08-01T02:00:18;96826.44;;;21.00
64394;BMP280;50712;49.506;10.400;2023-08-01T02:00:48;96821.66;;;21.00
64394;BMP280;50712;49.506;10.400;2023-08-01T02:01:19;96823.66;;;21.00
64394;BMP280;50712;49.506;10.400;2023-08-01T02:01:49;96823.66;;;21.00
64394;BMP280;50712;49.506;10.400;2023-08-01T02:02:20;96822.94;;;20.99
64394;BMP280;50712;49.506;10.400;2023-08-01T02:02:50;96811.88;;;20.99
64394;BMP280;50712;49.506;10.400;2023-08-01T02:03:20;96811.88;;;20.99
64394;BMP280;50712;49.506;10.400;2023-08-01T02:03:51;96817.41;;;20.99
64394;BMP280;50712;49.506;10.400;2023-08-01T02:04:21;96809.09;;;20.99
64394;BMP280;50712;49.506;10.400;2023-08-01T02:04:52;96810.56;;;21.00
64394;BMP280;50712;49.506;10.400;2023-08-01T02:05:23;96809.81;;;21.00
64394;BMP280;50712;49.506;10.400;2023-08-01T02:05:54;96800.22;;;21.01
64394;BMP280;50712;49.506;10.400;2023-08-01T02:06:24;96811.28;;;21.01
64394;BMP280;50712;49.506;10.400;2023-08-01T02:06:55;96806.50;;;21.01
64394;BMP280;50712;49.506;10.400;2023-08-01T02:07:25;96808.00;;;21.02
64394;BMP280;50712;49.506;10.400;2023-08-01T02:07:56;96807.81;;;21.00
64394;BMP280;50712;49.506;10.400;2023-08-01T02:08:26;96798.19;;;21.01
64394;BMP280;50712;49.506;10.400;2023-08-01T02:08:56;96805.97;;;21.03
64394;BMP280;50712;49.506;10.400;2023-08-01T02:09:31;96806.72;;;21.03
64394;BMP280;50712;49.506;10.400;2023-08-01T02:10:01;96798.94;;;21.02
64394;BMP280;50712;49.506;10.400;2023-08-01T02:10:35;96796.94;;;21.02
64394;BMP280;50712;49.506;10.400;2023-08-01T02:11:06;96801.72;;;21.02
64394;BMP280;50712;49.506;10.400;2023-08-01T02:11:36;96807.25;;;21.02
64394;BMP280;50712;49.506;10.400;2023-08-01T02:12:06;96805.22;;;21.02
64394;BMP280;50712;49.506;10.400;2023-08-01T02:12:39;96810.03;;;21.02
64394;BMP280;50712;49.506;10.400;2023-08-01T02:13:10;96805.97;;;21.03
64394;BMP280;50712;49.506;10.400;2023-08-01T02:13:40;96800.97;;;21.01
64394;BMP280;50712;49.506;10.400;2023-08-01T02:14:10;96802.47;;;21.02
64394;BMP280;50712;49.506;10.400;2023-08-01T02:14:41;96803.22;;;21.03
64394;BMP280;50712;49.506;10.400;2023-08-01T02:15:11;96807.44;;;21.04
64394;BMP280;50712;49.506;10.400;2023-08-01T02:15:42;96803.97;;;21.03
64394;BMP280;50712;49.506;10.400;2023-08-01T02:16:13;96810.94;;;21.04
64394;BMP280;50712;49.506;10.400;2023-08-01T02:16:43;96809.66;;;21.05
64394;BMP280;50712;49.506;10.400;2023-08-01T02:17:14;96808.91;;;21.05
64394;BMP280;50712;49.506;10.400;2023-08-01T02:17:44;96812.44;;;21.05
64394;BMP280;50712;49.506;10.400;2023-08-01T02:18:15;96813.19;;;21.06
64394;BMP280;50712;49.506;10.400;2023-08-01T02:18:45;96808.41;;;21.06
64394;BMP280;50712;49.506;10.400;2023-08-01T02:19:16;96813.94;;;21.06
64394;BMP280;50712;49.506;10.400;2023-08-01T02:19:47;96816.69;;;21.06
64394;BMP280;50712;49.506;10.400;2023-08-01T02:20:17;96811.69;;;21.05
64394;BMP280;50712;49.506;10.400;2023-08-01T02:20:47;96820.00;;;21.05
64394;BMP280;50712;49.506;10.400;2023-08-01T02:21:18;96821.28;;;21.04
64394;BMP280;50712;49.506;10.400;2023-08-01T02:21:48;96817.06;;;21.03
64394;BMP280;50712;49.506;10.400;2023-08-01T02:22:19;96811.69;;;21.05
64394;BMP280;50712;49.506;10.400;2023-08-01T02:22:50;96811.53;;;21.03
64394;BMP280;50712;49.506;10.400;2023-08-01T02:23:20;96806.72;;;21.03
64394;BMP280;50712;49.506;10.400;2023-08-01T02:23:50;96808.75;;;21.03
64394;BMP280;50712;49.506;10.400;2023-08-01T02:24:21;96801.72;;;21.02
64394;BMP280;50712;49.506;10.400;2023-08-01T02:24:51;96808.53;;;21.01
64394;BMP280;50712;49.506;10.400;2023-08-01T02:25:22;96807.25;;;21.02
64394;BMP280;50712;49.506;10.400;2023-08-01T02:25:52;96805.75;;;21.01
64394;BMP280;50712;49.506;10.400;2023-08-01T02:26:23;96807.25;;;21.02
64394;BMP280;50712;49.506;10.400;2023-08-01T02:26:54;96805.03;;;21.00
64394;BMP280;50712;49.506;10.400;2023-08-01T02:27:24;96801.72;;;21.02
64394;BMP280;50712;49.506;10.400;2023-08-01T02:27:55;96803.72;;;21.01
64394;BMP280;50712;49.506;10.400;2023-08-01T02:28:25;96798.94;;;21.02
64394;BMP280;50712;49.506;10.400;2023-08-01T02:28:56;96799.69;;;21.02
64394;BMP280;50712;49.506;10.400;2023-08-01T02:29:26;96806.50;;;21.01
64394;BMP280;50712;49.506;10.400;2023-08-01T02:29:57;96808.00;;;21.02
64394;BMP280;50712;49.506;10.400;2023-08-01T02:30:27;96804.69;;;21.04
64394;BMP280;50712;49.506;10.400;2023-08-01T02:30:59;96801.19;;;21.03
64394;BMP280;50712;49.506;10.400;2023-08-01T02:31:29;96798.41;;;21.03
64394;BMP280;50712;49.506;10.400;2023-08-01T02:31:59;96791.56;;;21.04
64394;BMP280;50712;49.506;10.400;2023-08-01T02:32:30;96797.84;;;21.05
64394;BMP280;50712;49.506;10.400;2023-08-01T02:33:02;96806.91;;;21.05
64394;BMP280;50712;49.506;10.400;2023-08-01T02:33:33;96804.13;;;21.05
64394;BMP280;50712;49.506;10.400;2023-08-01T02:34:05;96802.09;;;21.06
64394;BMP280;50712;49.506;10.400;2023-08-01T02:34:35;96803.59;;;21.07
64394;BMP280;50712;49.506;10.400;2023-08-01T02:35:06;96800.84;;;21.07
64394;BMP280;50712;49.506;10.400;2023-08-01T02:35:37;96801.56;;;21.07
64394;BMP280;50712;49.506;10.400;2023-08-01T02:36:07;96796.72;;;21.08
64394;BMP280;50712;49.506;10.400;2023-08-01T02:36:38;96803.78;;;21.09
64394;BMP280;50712;49.506;10.400;2023-08-01T02:37:10;96800.25;;;21.08
64394;BMP280;50712;49.506;10.400;2023-08-01T02:37:40;96801.00;;;21.09
64394;BMP280;50712;49.506;10.400;2023-08-01T02:38:11;96805.25;;;21.10
64394;BMP280;50712;49.506;10.400;2023-08-01T02:38:41;96798.97;;;21.09
64394;BMP280;50712;49.506;10.400;2023-08-01T02:39:11;96801.75;;;21.09
64394;BMP280;50712;49.506;10.400;2023-08-01T02:39:42;96796.22;;;21.09
64394;BMP280;50712;49.506;10.400;2023-08-01T02:40:12;96796.97;;;21.10
64394;BMP280;50712;49.506;10.400;2023-08-01T02:40:42;96793.44;;;21.09
64394;BMP280;50712;49.506;10.400;2023-08-01T02:41:13;96796.22;;;21.09
64394;BMP280;50712;49.506;10.400;2023-08-01T02:41:43;96793.44;;;21.09
64394;BMP280;50712;49.506;10.400;2023-08-01T02:42:14;96793.44;;;21.09
64394;BMP280;50712;49.506;10.400;2023-08-01T02:42:44;96799.72;;;21.10
64394;BMP280;50712;49.506;10.400;2023-08-01T02:43:14;96799.72;;;21.10
64394;BMP280;50712;49.506;10.400;2023-08-01T02:43:45;96794.91;;;21.10
64394;BMP280;50712;49.506;10.400;2023-08-01T02:44:16;96806.72;;;21.11
64394;BMP280;50712;49.506;10.400;2023-08-01T02:44:46;96799.19;;;21.11
64394;BMP280;50712;49.506;10.400;2023-08-01T02:45:16;96795.09;;;21.12
64394;BMP280;50712;49.506;10.400;2023-08-01T02:45:47;96794.34;;;21.12
64394;BMP280;50712;49.506;10.400;2023-08-01T02:46:17;96802.66;;;21.12
64394;BMP280;50712;49.506;10.400;2023-08-01T02:46:48;96795.09;;;21.12
64394;BMP280;50712;49.506;10.400;2023-08-01T02:47:18;96799.19;;;21.11
64394;BMP280;50712;49.506;10.400;2023-08-01T02:47:48;96797.88;;;21.12
64394;BMP280;50712;49.506;10.400;2023-08-01T02:48:19;96802.66;;;21.12
64394;BMP280;50712;49.506;10.400;2023-08-01T02:48:50;96814.50;;;21.12
64394;BMP280;50712;49.506;10.400;2023-08-01T02:49:21;96810.97;;;21.12
64394;BMP280;50712;49.506;10.400;2023-08-01T02:49:51;96804.72;;;21.11
64394;BMP280;50712;49.506;10.400;2023-08-01T02:50:22;96805.44;;;21.12
64394;BMP280;50712;49.506;10.400;2023-08-01T02:50:52;96807.47;;;21.11
64394;BMP280;50712;49.506;10.400;2023-08-01T02:51:22;96812.28;;;21.11
64394;BMP280;50712;49.506;10.400;2023-08-01T02:51:53;96802.66;;;21.12
64394;BMP280;50712;49.506;10.400;2023-08-01T02:52:23;96810.81;;;21.10
64394;BMP280;50712;49.506;10.400;2023-08-01T02:52:53;96804.50;;;21.09
64394;BMP280;50712;49.506;10.400;2023-08-01T02:53:24;96811.31;;;21.08
64394;BMP280;50712;49.506;10.400;2023-08-01T02:53:54;96818.88;;;21.08
64394;BMP280;50712;49.506;10.400;2023-08-01T02:54:24;96812.63;;;21.07
64394;BMP280;50712;49.506;10.400;2023-08-01T02:54:55;96813.19;;;21.06
64394;BMP280;50712;49.506;10.400;2023-08-01T02:55:25;96807.66;;;21.06